Time;durP1;ratioP1;P1;durP2;ratioP2;P2;SDS_P1;SDS_P2;PMS_P1;PMS_P2;Temp;Humidity;BMP_temperature;BMP_pressure;BME280_temperature;BME280_humidity;BME280_pressure;Samples;Min_cycle;Max_cycle;Signal;HPM_P1;HPM_P2
2021/04/12 00:01:48;;;;;;;8.18;3.08;;;;;;;;;;5094068;28;20064;-66
2021/04/12 00:04:18;;;;;;;6.72;2.90;;;;;;;;;;5061428;28;20043;-66
2021/04/12 00:06:47;;;;;;;7.95;3.10;;;;;;;;;;5092906;28;20443;-66
2021/04/12 00:09:20;;;;;;;7.03;3.03;;;;;;;;;;5092788;28;20418;-66
2021/04/12 00:12:09;;;;;;;7.53;3.75;;;;;;;;;;5093941;28;20028;-66
2021/04/12 00:14:48;;;;;;;11.55;4.32;;;;;;;;;;5085975;28;20078;-66
2021/04/12 00:17:17;;;;;;;11.75;4.00;;;;;;;;;;5093415;28;20035;-66
2021/04/12 00:19:51;;;;;;;8.45;3.70;;;;;;;;;;5093852;28;20016;-66
2021/04/12 00:22:19;;;;;;;7.20;4.03;;;;;;;;;;5093725;28;20032;-67
2021/04/12 00:24:58;;;;;;;8.68;4.18;;;;;;;;;;5093341;28;20401;-67
2021/04/12 00:27:32;;;;;;;9.25;4.10;;;;;;;;;;5093912;28;20097;-67
2021/04/12 00:30:01;;;;;;;11.07;4.20;;;;;;;;;;5093776;28;20048;-67
2021/04/12 00:32:33;;;;;;;8.77;5.07;;;;;;;;;;5093190;28;20024;-66
2021/04/12 00:35:18;;;;;;;12.45;5.07;;;;;;;;;;5093505;28;20030;-66
2021/04/12 00:37:47;;;;;;;10.85;5.43;;;;;;;;;;5091700;28;20079;-66
2021/04/12 00:40:32;;;;;;;8.65;3.92;;;;;;;;;;5091771;28;20036;-66
2021/04/12 00:42:58;;;;;;;7.47;4.40;;;;;;;;;;5092231;28;20262;-67
2021/04/12 00:45:36;;;;;;;8.30;3.22;;;;;;;;;;5091803;28;20031;-66
2021/04/12 00:48:02;;;;;;;5.35;2.88;;;;;;;;;;5093452;28;20020;-67
2021/04/12 00:50:48;;;;;;;10.05;3.80;;;;;;;;;;5093378;28;20552;-67
2021/04/12 00:53:33;;;;;;;8.25;3.65;;;;;;;;;;5092672;28;20034;-66
2021/04/12 00:56:11;;;;;;;6.78;3.17;;;;;;;;;;5093120;28;20024;-67
2021/04/12 00:58:49;;;;;;;6.65;3.10;;;;;;;;;;5092717;28;20383;-66
2021/04/12 01:01:24;;;;;;;8.05;3.47;;;;;;;;;;5092976;28;20383;-67
2021/04/12 01:04:09;;;;;;;11.13;4.05;;;;;;;;;;5093050;28;20028;-66
2021/04/12 01:06:53;;;;;;;8.60;3.35;;;;;;;;;;5092752;28;20028;-66
2021/04/12 01:09:22;;;;;;;8.60;3.70;;;;;;;;;;5093044;28;20145;-66
2021/04/12 01:11:48;;;;;;;7.38;3.75;;;;;;;;;;5091555;28;20031;-66
2021/04/12 01:14:33;;;;;;;12.70;4.05;;;;;;;;;;5092578;28;20012;-67
2021/04/12 01:17:10;;;;;;;13.25;4.13;;;;;;;;;;5091371;28;20549;-66
2021/04/12 01:19:45;;;;;;;7.78;3.85;;;;;;;;;;5092847;28;20027;-66
2021/04/12 01:22:11;;;;;;;8.85;3.67;;;;;;;;;;5092643;28;20116;-66
2021/04/12 01:24:47;;;;;;;10.32;5.30;;;;;;;;;;5091444;28;20042;-66
2021/04/12 01:27:48;;;;;;;8.90;3.90;;;;;;;;;;5092447;28;20145;-66
2021/04/12 01:30:30;;;;;;;7.20;3.30;;;;;;;;;;5092722;28;20391;-67
2021/04/12 01:33:32;;;;;;;9.70;4.10;;;;;;;;;;5092706;28;20069;-69
2021/04/12 01:36:16;;;;;;;9.18;3.55;;;;;;;;;;5029563;28;20033;-66
2021/04/12 01:38:56;;;;;;;8.10;3.30;;;;;;;;;;5085205;28;20035;-66
2021/04/12 01:41:25;;;;;;;10.90;5.18;;;;;;;;;;5090591;28;20096;-66
2021/04/12 01:44:14;;;;;;;9.25;4.00;;;;;;;;;;5092447;28;20024;-66
2021/04/12 01:46:51;;;;;;;8.43;4.10;;;;;;;;;;5092570;28;20028;-67
2021/04/12 01:49:36;;;;;;;9.73;4.85;;;;;;;;;;5092263;28;20026;-66
2021/04/12 01:52:11;;;;;;;10.68;5.38;;;;;;;;;;5092449;28;20099;-66
2021/04/12 01:54:37;;;;;;;11.57;6.65;;;;;;;;;;5091224;28;20021;-67
2021/04/12 01:57:12;;;;;;;12.70;6.30;;;;;;;;;;5091990;28;20024;-66
2021/04/12 01:59:44;;;;;;;12.05;5.03;;;;;;;;;;5092396;28;20031;-66
2021/04/12 02:02:29;;;;;;;10.27;4.38;;;;;;;;;;5091849;28;20036;-66
2021/04/12 02:05:13;;;;;;;8.80;3.90;;;;;;;;;;5092333;28;20020;-66
2021/04/12 02:07:58;;;;;;;11.25;4.22;;;;;;;;;;5092447;28;20028;-66
2021/04/12 02:10:43;;;;;;;8.43;4.35;;;;;;;;;;5092088;28;20438;-66
2021/04/12 02:13:21;;;;;;;9.68;4.30;;;;;;;;;;5092280;28;20024;-66
2021/04/12 02:15:50;;;;;;;11.13;5.25;;;;;;;;;;5091017;28;20408;-66
2021/04/12 02:18:31;;;;;;;9.48;4.60;;;;;;;;;;5091892;28;20499;-66
2021/04/12 02:21:16;;;;;;;9.73;4.38;;;;;;;;;;5092101;28;20039;-66
2021/04/12 02:23:42;;;;;;;9.30;4.00;;;;;;;;;;5091799;28;20268;-67
2021/04/12 02:26:14;;;;;;;7.60;4.43;;;;;;;;;;5092176;28;20028;-66
2021/04/12 02:29:03;;;;;;;12.77;4.88;;;;;;;;;;5095244;28;20469;-67
2021/04/12 02:31:38;;;;;;;11.52;5.32;;;;;;;;;;5057141;28;20116;-67
2021/04/12 02:34:09;;;;;;;9.57;4.72;;;;;;;;;;5095871;28;20027;-66
2021/04/12 02:36:46;;;;;;;11.90;4.47;;;;;;;;;;5094649;28;20064;-67
2021/04/12 02:39:23;;;;;;;9.32;4.82;;;;;;;;;;5094132;28;20502;-66
2021/04/12 02:41:58;;;;;;;11.63;4.15;;;;;;;;;;5094127;28;20061;-67
2021/04/12 02:44:39;;;;;;;8.73;3.83;;;;;;;;;;5094007;28;20066;-67
2021/04/12 02:47:23;;;;;;;7.75;3.22;;;;;;;;;;5095634;28;20020;-67
2021/04/12 02:50:08;;;;;;;8.48;3.95;;;;;;;;;;5094406;28;20514;-66
2021/04/12 02:52:37;;;;;;;7.10;3.75;;;;;;;;;;5095238;28;20024;-67
2021/04/12 02:55:14;;;;;;;6.75;3.90;;;;;;;;;;5095474;28;20024;-66
2021/04/12 02:58:00;;;;;;;8.85;4.13;;;;;;;;;;5095496;28;20024;-67
2021/04/12 03:00:44;;;;;;;9.85;3.92;;;;;;;;;;5094965;28;20028;-66
2021/04/12 03:03:29;;;;;;;12.73;5.18;;;;;;;;;;5095545;28;20074;-66
2021/04/12 03:06:14;;;;;;;11.98;6.45;;;;;;;;;;5094841;28;20028;-66
2021/04/12 03:08:55;;;;;;;14.13;5.53;;;;;;;;;;5095300;28;20024;-68
2021/04/12 03:11:28;;;;;;;10.25;4.85;;;;;;;;;;5095298;28;20077;-67
2021/04/12 03:13:54;;;;;;;;;;;;;;;;;;5095132;28;20133;-67
2021/04/12 03:16:23;;;;;;;12.35;4.38;;;;;;;;;;5095057;28;20382;-67
2021/04/12 03:18:58;;;;;;;7.90;3.58;;;;;;;;;;5095073;28;20035;-67
2021/04/12 03:21:33;;;;;;;9.40;4.20;;;;;;;;;;5093195;28;20067;-67
2021/04/12 03:24:17;;;;;;;9.43;4.72;;;;;;;;;;5094909;28;20043;-67
2021/04/12 03:26:53;;;;;;;7.28;3.72;;;;;;;;;;5094482;28;20020;-67
2021/04/12 03:29:19;;;;;;;8.70;4.10;;;;;;;;;;5093499;28;20032;-67
2021/04/12 03:32:07;;;;;;;12.95;5.43;;;;;;;;;;5094963;28;20050;-67
2021/04/12 03:34:33;;;;;;;8.73;4.10;;;;;;;;;;5093116;28;20024;-67
2021/04/12 03:37:11;;;;;;;8.40;4.28;;;;;;;;;;5094677;28;20030;-67
2021/04/12 03:39:40;;;;;;;9.23;4.60;;;;;;;;;;5094464;28;20031;-67
2021/04/12 03:42:15;;;;;;;9.30;3.97;;;;;;;;;;5093967;28;20053;-67
2021/04/12 03:44:59;;;;;;;10.23;4.25;;;;;;;;;;5094517;28;20028;-67
2021/04/12 03:47:41;;;;;;;6.90;3.45;;;;;;;;;;5094173;28;20503;-67
2021/04/12 03:50:10;;;;;;;9.57;4.13;;;;;;;;;;5094445;28;20314;-67
2021/04/12 03:52:59;;;;;;;11.77;5.28;;;;;;;;;;5094336;28;20371;-67
2021/04/12 03:55:48;;;;;;;11.55;5.20;;;;;;;;;;5094036;28;20156;-67
2021/04/12 03:58:33;;;;;;;10.13;4.90;;;;;;;;;;5082742;28;20502;-67
2021/04/12 04:01:18;;;;;;;11.55;4.97;;;;;;;;;;5094062;28;20040;-67
2021/04/12 04:03:47;;;;;;;9.57;4.07;;;;;;;;;;5093661;28;20032;-67
2021/04/12 04:06:19;;;;;;;10.80;5.25;;;;;;;;;;5094135;28;20544;-67
2021/04/12 04:09:01;;;;;;;6.27;3.53;;;;;;;;;;5092416;28;20020;-67
2021/04/12 04:11:46;;;;;;;8.52;4.57;;;;;;;;;;5093898;28;20339;-67
2021/04/12 04:14:31;;;;;;;8.75;3.83;;;;;;;;;;5093986;28;20136;-67
2021/04/12 04:17:16;;;;;;;11.45;3.85;;;;;;;;;;5092169;28;20483;-67
2021/04/12 04:20:01;;;;;;;9.02;4.68;;;;;;;;;;5093802;28;20024;-67
2021/04/12 04:22:45;;;;;;;12.85;3.92;;;;;;;;;;5093606;28;20118;-67
2021/04/12 04:25:30;;;;;;;9.30;5.25;;;;;;;;;;5092598;28;20020;-67
2021/04/12 04:27:59;;;;;;;10.82;5.03;;;;;;;;;;5093865;28;20044;-67
2021/04/12 04:30:34;;;;;;;16.67;9.00;;;;;;;;;;5093146;28;20028;-67
2021/04/12 04:33:19;;;;;;;19.08;12.05;;;;;;;;;;5092200;28;20031;-67
2021/04/12 04:36:11;;;;;;;17.05;10.02;;;;;;;;;;5093519;28;20357;-67
2021/04/12 04:38:52;;;;;;;23.98;12.35;;;;;;;;;;5069421;28;20047;-67
2021/04/12 04:41:37;;;;;;;16.98;8.65;;;;;;;;;;5093282;28;20047;-67
2021/04/12 04:44:14;;;;;;;15.38;7.05;;;;;;;;;;5093193;28;20103;-66
2021/04/12 04:46:58;;;;;;;15.45;6.75;;;;;;;;;;5093391;28;20486;-67
2021/04/12 04:49:36;;;;;;;19.23;9.93;;;;;;;;;;5093148;28;20589;-67
2021/04/12 04:52:18;;;;;;;24.45;11.07;;;;;;;;;;5091439;28;20039;-67
2021/04/12 04:54:50;;;;;;;17.83;9.63;;;;;;;;;;5093260;28;20098;-67
2021/04/12 04:57:34;;;;;;;18.40;9.20;;;;;;;;;;5091856;28;20012;-67
2021/04/12 05:00:10;;;;;;;12.23;6.45;;;;;;;;;;5091334;28;20502;-67
2021/04/12 05:02:55;;;;;;;17.50;7.20;;;;;;;;;;5091883;28;20040;-67
2021/04/12 05:05:21;;;;;;;14.38;7.45;;;;;;;;;;5091539;28;20110;-67
2021/04/12 05:07:47;;;;;;;11.43;5.55;;;;;;;;;;5093818;28;20012;-66
2021/04/12 05:10:22;;;;;;;11.30;6.35;;;;;;;;;;5092127;28;20031;-67
2021/04/12 05:13:07;;;;;;;20.98;7.85;;;;;;;;;;5091843;28;20016;-67
2021/04/12 05:15:49;;;;;;;13.68;6.60;;;;;;;;;;5092751;28;20050;-67
2021/04/12 05:18:15;;;;;;;12.23;5.90;;;;;;;;;;5092698;28;20037;-66
2021/04/12 05:20:41;;;;;;;16.85;6.80;;;;;;;;;;5091117;28;20086;-66
2021/04/12 05:23:20;;;;;;;13.10;6.38;;;;;;;;;;5092454;28;20024;-66
2021/04/12 05:26:05;;;;;;;18.20;9.63;;;;;;;;;;5092675;28;20032;-66
2021/04/12 05:28:50;;;;;;;20.33;11.18;;;;;;;;;;5092409;28;20492;-67
2021/04/12 05:31:26;;;;;;;17.33;9.70;;;;;;;;;;5092455;28;20024;-69
2021/04/12 05:34:11;;;;;;;29.20;15.80;;;;;;;;;;5092180;28;20095;-69
2021/04/12 05:36:40;;;;;;;20.88;11.80;;;;;;;;;;5092489;28;20028;-70
2021/04/12 05:39:24;;;;;;;22.40;11.75;;;;;;;;;;5091962;28;20024;-69
2021/04/12 05:41:57;;;;;;;22.05;12.55;;;;;;;;;;5091911;28;20048;-69
2021/04/12 05:44:41;;;;;;;22.20;13.13;;;;;;;;;;5092692;28;20101;-70
2021/04/12 05:47:25;;;;;;;30.63;15.98;;;;;;;;;;5092135;28;20028;-70
2021/04/12 05:50:11;;;;;;;18.63;10.80;;;;;;;;;;5092291;28;20032;-70
2021/04/12 05:52:59;;;;;;;17.48;10.73;;;;;;;;;;5092546;28;20514;-70
2021/04/12 05:55:37;;;;;;;12.98;8.65;;;;;;;;;;5087986;28;20052;-69
2021/04/12 05:58:22;;;;;;;20.23;11.55;;;;;;;;;;5084431;28;20127;-70
2021/04/12 06:00:51;;;;;;;24.92;10.68;;;;;;;;;;5086625;28;20052;-68
2021/04/12 06:03:32;;;;;;;19.77;11.68;;;;;;;;;;5089081;28;20436;-69
2021/04/12 06:06:17;;;;;;;28.05;14.07;;;;;;;;;;5101016;28;20089;-69
2021/04/12 06:08:46;;;;;;;20.38;11.43;;;;;;;;;;5103125;28;20468;-69
2021/04/12 06:11:12;;;;;;;13.27;5.93;;;;;;;;;;5093654;28;20032;-69
2021/04/12 06:13:57;;;;;;;11.63;5.50;;;;;;;;;;5093438;28;20023;-69
2021/04/12 06:16:38;;;;;;;9.88;5.15;;;;;;;;;;5095123;28;20024;-70
2021/04/12 06:19:23;;;;;;;8.20;4.50;;;;;;;;;;5092214;28;20032;-69
2021/04/12 06:22:01;;;;;;;13.70;5.35;;;;;;;;;;5091778;28;20060;-68
2021/04/12 06:24:46;;;;;;;13.35;5.20;;;;;;;;;;5093338;28;20020;-68
2021/04/12 06:27:20;;;;;;;8.80;4.18;;;;;;;;;;5094581;28;20028;-67
2021/04/12 06:30:05;;;;;;;11.75;4.88;;;;;;;;;;5093834;28;20031;-68
2021/04/12 06:32:49;;;;;;;9.40;4.38;;;;;;;;;;5090745;28;20027;-67
2021/04/12 06:35:34;;;;;;;9.93;4.93;;;;;;;;;;5092826;28;20047;-68
2021/04/12 06:38:00;;;;;;;9.60;4.57;;;;;;;;;;5093532;28;20038;-67
2021/04/12 06:40:50;;;;;;;12.75;5.32;;;;;;;;;;5090519;28;20043;-68
2021/04/12 06:43:19;;;;;;;9.98;5.50;;;;;;;;;;5092306;28;20099;-69
2021/04/12 06:46:00;;;;;;;12.15;5.93;;;;;;;;;;5091748;28;20024;-69
2021/04/12 06:48:26;;;;;;;11.05;5.30;;;;;;;;;;5094192;28;20476;-68
2021/04/12 06:51:02;;;;;;;8.88;4.13;;;;;;;;;;5090442;28;20480;-68
2021/04/12 06:54:02;;;;;;;12.23;4.80;;;;;;;;;;5106846;27;20426;-69
2021/04/12 06:56:34;;;;;;;6.75;3.45;;;;;;;;;;5104345;28;20812;-69
2021/04/12 06:59:06;;;;;;;10.98;3.35;;;;;;;;;;5106689;28;20026;-69
2021/04/12 07:01:33;;;;;;;6.53;3.20;;;;;;;;;;5105599;28;20498;-69
2021/04/12 07:04:09;;;;;;;7.30;3.42;;;;;;;;;;5107643;28;20032;-74
2021/04/12 07:07:16;;;;;;;6.50;2.88;;;;;;;;;;5102067;27;20383;-71
2021/04/12 07:10:36;;;;;;;5.35;2.97;;;;;;;;;;5107953;27;20442;-71
2021/04/12 07:13:02;;;;;;;6.55;3.55;;;;;;;;;;5109214;28;20020;-71
2021/04/12 07:15:47;;;;;;;8.13;4.07;;;;;;;;;;5106931;28;20016;-72
2021/04/12 07:21:14;;;;;;;8.05;4.35;;;;;;;;;;5089857;27;20383;-71
2021/04/12 07:24:04;;;;;;;9.88;3.90;;;;;;;;;;5087620;28;20040;-69
2021/04/12 07:26:45;;;;;;;6.38;3.72;;;;;;;;;;5076790;28;20054;-68
2021/04/12 07:34:20;;;;;;;8.25;4.15;;;;;;;;;;5109341;27;20430;-68
2021/04/12 07:37:07;;;;;;;12.40;3.83;;;;;;;;;;5108206;28;20024;-68
2021/04/12 07:39:57;;;;;;;8.60;4.70;;;;;;;;;;5109314;28;20069;-66
2021/04/12 07:42:41;;;;;;;6.75;3.80;;;;;;;;;;5079927;28;20028;-67
2021/04/12 07:45:13;;;;;;;8.30;3.67;;;;;;;;;;5109086;28;20107;-68
2021/04/12 07:47:45;;;;;;;7.25;3.17;;;;;;;;;;5109274;28;20613;-68
2021/04/12 07:50:24;;;;;;;4.87;2.97;;;;;;;;;;5113805;28;20055;-67
2021/04/12 07:53:10;;;;;;;8.43;4.10;;;;;;;;;;5108819;28;20157;-67
2021/04/12 07:55:54;;;;;;;8.73;3.75;;;;;;;;;;5107694;28;20506;-68
2021/04/12 07:58:39;;;;;;;6.20;2.17;;;;;;;;;;5106936;28;20717;-68
2021/04/12 08:02:30;;;;;;;6.85;3.00;;;;;;;;;;5066481;28;20423;-66
2021/04/12 08:05:02;;;;;;;4.80;2.08;;;;;;;;;;5066378;28;20024;-67
2021/04/12 08:09:47;;;;;;;5.45;2.97;;;;;;;;;;5107052;27;21128;-69
2021/04/12 08:12:26;;;;;;;4.70;2.28;;;;;;;;;;5107640;28;20024;-68
2021/04/12 08:14:52;;;;;;;5.90;2.70;;;;;;;;;;5105840;28;20088;-67
2021/04/12 08:18:12;;;;;;;4.07;1.95;;;;;;;;;;5107442;27;20380;-69
2021/04/12 08:22:10;;;;;;;5.53;2.60;;;;;;;;;;5109038;27;20388;-69
2021/04/12 08:24:59;;;;;;;4.00;2.20;;;;;;;;;;5095909;27;20406;-66
2021/04/12 08:31:08;;;;;;;5.18;2.50;;;;;;;;;;5067619;28;20437;-68
2021/04/12 08:33:52;;;;;;;4.45;1.85;;;;;;;;;;5067483;28;20029;-67
2021/04/12 08:37:53;;;;;;;3.20;1.65;;;;;;;;;;5106137;27;20388;-66
2021/04/12 08:40:22;;;;;;;3.97;1.77;;;;;;;;;;5105191;28;20026;-68
2021/04/12 08:43:21;;;;;;;4.30;2.72;;;;;;;;;;5108336;27;20392;-67
2021/04/12 08:46:26;;;;;;;5.90;2.25;;;;;;;;;;5106526;27;20166;-68
2021/04/12 08:48:55;;;;;;;11.38;2.70;;;;;;;;;;5108278;28;20077;-67
2021/04/12 08:52:46;;;;;;;5.03;2.33;;;;;;;;;;5107786;27;20377;-68
2021/04/12 08:55:51;;;;;;;4.78;2.13;;;;;;;;;;5137733;27;20108;-68
2021/04/12 08:59:30;;;;;;;4.00;1.92;;;;;;;;;;5108129;27;20854;-68
2021/04/12 09:03:15;;;;;;;4.45;2.05;;;;;;;;;;5107517;27;20388;-66
2021/04/12 09:08:19;;;;;;;6.78;1.88;;;;;;;;;;5087125;27;20446;-68
2021/04/12 09:11:04;;;;;;;5.55;2.22;;;;;;;;;;5086173;28;20020;-69
2021/04/12 09:13:39;;;;;;;9.13;2.38;;;;;;;;;;5087567;28;20119;-68
2021/04/12 09:16:05;;;;;;;6.70;2.63;;;;;;;;;;5088628;28;20056;-70
2021/04/12 09:18:41;;;;;;;5.63;2.78;;;;;;;;;;5087862;28;20036;-69
2021/04/12 09:21:26;;;;;;;3.75;2.00;;;;;;;;;;5096358;28;20042;-69
2021/04/12 09:24:01;;;;;;;5.55;2.35;;;;;;;;;;5086406;28;20087;-68
2021/04/12 09:26:40;;;;;;;6.13;2.40;;;;;;;;;;5087270;28;20081;-69
2021/04/12 09:29:19;;;;;;;3.30;2.35;;;;;;;;;;5088008;28;20419;-69
2021/04/12 09:31:53;;;;;;;4.68;2.40;;;;;;;;;;5088519;28;20476;-69
2021/04/12 09:34:22;;;;;;;7.10;2.33;;;;;;;;;;5082764;28;20098;-69
2021/04/12 09:37:17;;;;;;;4.57;2.40;;;;;;;;;;5083803;28;20036;-69
2021/04/12 09:39:52;;;;;;;6.18;2.45;;;;;;;;;;5084096;28;20024;-68
2021/04/12 09:42:27;;;;;;;6.13;1.98;;;;;;;;;;5085387;28;20085;-68
2021/04/12 09:45:19;;;;;;;5.07;2.40;;;;;;;;;;5086510;28;20070;-69
2021/04/12 09:48:01;;;;;;;4.53;2.40;;;;;;;;;;5087088;28;20043;-68
2021/04/12 09:50:39;;;;;;;4.88;2.35;;;;;;;;;;5087779;28;20038;-68
2021/04/12 09:53:38;;;;;;;5.63;2.60;;;;;;;;;;5087246;28;20488;-70
2021/04/12 09:56:16;;;;;;;5.45;2.83;;;;;;;;;;5051129;28;20039;-70
2021/04/12 09:59:01;;;;;;;5.35;2.70;;;;;;;;;;5086053;28;20380;-70
2021/04/12 10:01:46;;;;;;;5.95;3.00;;;;;;;;;;5085767;28;20031;-69
2021/04/12 10:04:12;;;;;;;8.35;3.08;;;;;;;;;;5087053;28;20024;-70
2021/04/12 10:06:50;;;;;;;7.45;2.65;;;;;;;;;;5087207;28;20103;-71
2021/04/12 10:09:29;;;;;;;10.35;4.45;;;;;;;;;;5087349;28;20044;-72
2021/04/12 10:11:58;;;;;;;5.60;2.83;;;;;;;;;;5084560;28;20024;-72
2021/04/12 10:14:31;;;;;;;7.57;3.22;;;;;;;;;;5084093;28;20078;-71
2021/04/12 10:17:06;;;;;;;5.47;2.83;;;;;;;;;;5086241;28;20032;-75
2021/04/12 10:19:41;;;;;;;4.88;2.40;;;;;;;;;;5072749;28;20025;-71
2021/04/12 10:22:14;;;;;;;5.75;2.20;;;;;;;;;;5070365;28;20490;-70
2021/04/12 10:24:54;;;;;;;5.80;2.72;;;;;;;;;;5071609;28;20524;-70
2021/04/12 10:27:31;;;;;;;5.07;2.30;;;;;;;;;;5072647;28;20032;-70
2021/04/12 10:30:06;;;;;;;7.20;2.70;;;;;;;;;;5073407;28;20078;-70
2021/04/12 10:32:33;;;;;;;6.72;2.72;;;;;;;;;;5071738;28;20094;-70
2021/04/12 10:35:11;;;;;;;5.28;3.20;;;;;;;;;;5072856;28;20021;-70
2021/04/12 10:37:46;;;;;;;4.78;2.00;;;;;;;;;;5088533;28;20487;-68
2021/04/12 10:40:25;;;;;;;5.45;2.47;;;;;;;;;;5073966;28;20078;-69
2021/04/12 10:42:51;;;;;;;5.93;2.00;;;;;;;;;;5081584;28;20016;-70
2021/04/12 10:45:37;;;;;;;4.30;2.47;;;;;;;;;;5092521;28;20020;-68
2021/04/12 10:48:09;;;;;;;5.80;2.92;;;;;;;;;;5079497;28;20036;-69
2021/04/12 10:50:37;;;;;;;7.95;2.42;;;;;;;;;;5072375;28;20452;-67
2021/04/12 10:53:22;;;;;;;7.15;2.83;;;;;;;;;;5071095;28;20020;-67
2021/04/12 10:55:55;;;;;;;6.55;2.92;;;;;;;;;;5074431;28;20411;-67
2021/04/12 10:58:31;;;;;;;7.75;2.90;;;;;;;;;;5074775;28;20387;-68
2021/04/12 11:02:53;;;;;;;7.18;3.30;;;;;;;;;;5108811;27;20384;-68
2021/04/12 11:05:22;;;;;;;9.85;5.80;;;;;;;;;;5108070;28;20563;-67
2021/04/12 11:07:48;;;;;;;9.85;5.72;;;;;;;;;;5109772;28;20116;-68
2021/04/12 11:10:29;;;;;;;10.02;5.47;;;;;;;;;;5108730;28;20020;-68
2021/04/12 11:13:00;;;;;;;12.32;6.70;;;;;;;;;;5108129;28;20031;-68
2021/04/12 11:15:37;;;;;;;9.90;5.40;;;;;;;;;;5108853;28;20020;-68
2021/04/12 11:18:22;;;;;;;8.20;4.85;;;;;;;;;;5108626;28;20031;-69
2021/04/12 11:21:08;;;;;;;9.40;4.57;;;;;;;;;;5108167;28;20024;-68
2021/04/12 11:23:38;;;;;;;14.23;7.07;;;;;;;;;;5109208;28;20495;-68
2021/04/12 11:26:12;;;;;;;13.02;7.75;;;;;;;;;;5108720;28;20099;-69
2021/04/12 11:28:42;;;;;;;14.60;8.05;;;;;;;;;;5108201;28;20062;-69
2021/04/12 11:31:15;;;;;;;13.05;7.43;;;;;;;;;;5108423;28;20023;-68
2021/04/12 11:33:44;;;;;;;11.77;7.32;;;;;;;;;;5107472;28;20024;-69
2021/04/12 11:36:22;;;;;;;11.35;7.82;;;;;;;;;;5107766;28;20024;-69
2021/04/12 11:39:07;;;;;;;16.98;8.52;;;;;;;;;;5106828;28;20035;-69
2021/04/12 11:41:47;;;;;;;7.57;3.50;;;;;;;;;;5107853;28;20028;-68
2021/04/12 11:44:20;;;;;;;10.75;5.93;;;;;;;;;;5108280;28;20027;-68
2021/04/12 11:46:56;;;;;;;13.00;7.45;;;;;;;;;;5109260;28;20016;-68
2021/04/12 11:49:43;;;;;;;12.57;7.22;;;;;;;;;;5109041;28;20048;-69
2021/04/12 11:52:21;;;;;;;14.55;7.07;;;;;;;;;;5109347;28;20360;-68
2021/04/12 11:55:01;;;;;;;13.10;7.80;;;;;;;;;;5108218;28;20059;-68
2021/04/12 11:57:46;;;;;;;10.32;6.50;;;;;;;;;;5107454;28;20020;-68
2021/04/12 12:00:18;;;;;;;8.43;5.18;;;;;;;;;;5106956;28;20031;-68
2021/04/12 12:03:03;;;;;;;8.98;4.35;;;;;;;;;;5107319;28;20040;-68
2021/04/12 12:05:33;;;;;;;7.38;3.58;;;;;;;;;;5108071;28;20123;-67
2021/04/12 12:08:00;;;;;;;11.73;5.20;;;;;;;;;;5108223;28;20541;-70
2021/04/12 12:11:01;;;;;;;7.93;4.30;;;;;;;;;;5108810;28;20043;-69
2021/04/12 12:13:30;;;;;;;9.00;4.20;;;;;;;;;;5015876;28;20084;-67
2021/04/12 12:16:00;;;;;;;8.25;4.25;;;;;;;;;;5080022;28;20093;-67
2021/04/12 12:18:28;;;;;;;8.88;4.55;;;;;;;;;;5095542;28;20081;-68
2021/04/12 12:21:02;;;;;;;9.27;5.22;;;;;;;;;;5094928;28;20032;-68
2021/04/12 12:23:37;;;;;;;8.65;4.72;;;;;;;;;;5094614;28;20053;-68
2021/04/12 12:26:06;;;;;;;9.07;4.57;;;;;;;;;;5093297;28;20333;-68
2021/04/12 12:28:42;;;;;;;8.25;3.42;;;;;;;;;;5091423;28;20507;-68
2021/04/12 12:31:30;;;;;;;8.95;4.28;;;;;;;;;;5093050;28;20028;-68
2021/04/12 12:34:04;;;;;;;7.70;3.85;;;;;;;;;;5091817;28;20055;-68
2021/04/12 12:36:53;;;;;;;7.95;4.55;;;;;;;;;;5093051;28;20035;-68
2021/04/12 12:39:31;;;;;;;11.80;4.60;;;;;;;;;;5093537;28;20371;-68
2021/04/12 12:42:01;;;;;;;8.75;4.53;;;;;;;;;;5094469;28;20036;-68
2021/04/12 12:44:29;;;;;;;7.80;3.88;;;;;;;;;;5094903;28;20515;-67
2021/04/12 12:46:55;;;;;;;8.00;3.05;;;;;;;;;;5093854;28;20117;-68
2021/04/12 12:49:31;;;;;;;7.88;3.42;;;;;;;;;;5094388;28;20017;-68
2021/04/12 12:52:00;;;;;;;5.30;2.80;;;;;;;;;;5094686;28;20013;-68
2021/04/12 12:54:34;;;;;;;7.43;3.05;;;;;;;;;;5094741;28;20484;-68
2021/04/12 12:57:06;;;;;;;6.90;2.85;;;;;;;;;;5093134;28;20384;-68
2021/04/12 12:59:40;;;;;;;7.70;2.83;;;;;;;;;;5094793;28;20033;-67
2021/04/12 13:02:21;;;;;;;5.68;2.63;;;;;;;;;;5094462;28;20047;-67
2021/04/12 13:05:09;;;;;;;6.60;2.40;;;;;;;;;;5094235;28;20058;-67
2021/04/12 13:07:35;;;;;;;7.90;2.40;;;;;;;;;;5093236;28;20054;-67
2021/04/12 13:10:04;;;;;;;8.38;2.30;;;;;;;;;;5094523;28;20028;-67
2021/04/12 13:12:38;;;;;;;6.68;2.28;;;;;;;;;;5094427;28;20023;-67
2021/04/12 13:15:10;;;;;;;5.97;2.00;;;;;;;;;;5093123;28;20024;-68
2021/04/12 13:17:38;;;;;;;5.53;2.33;;;;;;;;;;5093984;28;20020;-68
2021/04/12 13:20:10;;;;;;;6.03;1.80;;;;;;;;;;5094581;28;20158;-67
2021/04/12 13:22:38;;;;;;;7.32;2.80;;;;;;;;;;5094065;28;20356;-68
2021/04/12 13:25:18;;;;;;;6.80;2.78;;;;;;;;;;5092735;28;20077;-68
2021/04/12 13:27:47;;;;;;;4.10;1.85;;;;;;;;;;5093995;28;20024;-69
2021/04/12 13:30:18;;;;;;;5.05;1.80;;;;;;;;;;5094010;28;20543;-68
2021/04/12 13:33:13;;;;;;;7.20;2.10;;;;;;;;;;5093497;28;20051;-68
2021/04/12 13:35:41;;;;;;;7.15;1.90;;;;;;;;;;5076668;28;20067;-68
2021/04/12 13:38:11;;;;;;;5.80;1.80;;;;;;;;;;5093917;28;20093;-68
2021/04/12 13:40:49;;;;;;;6.55;2.13;;;;;;;;;;5092457;28;20115;-68
2021/04/12 13:43:15;;;;;;;4.40;2.10;;;;;;;;;;5093665;28;20103;-68
2021/04/12 13:45:43;;;;;;;9.18;3.85;;;;;;;;;;5091880;28;20107;-69
2021/04/12 13:48:18;;;;;;;6.82;2.95;;;;;;;;;;5093435;28;20058;-68
2021/04/12 13:50:53;;;;;;;7.88;2.53;;;;;;;;;;5092938;28;20127;-68
2021/04/12 13:53:37;;;;;;;7.40;2.20;;;;;;;;;;5092976;28;20016;-67
2021/04/12 13:56:09;;;;;;;8.23;2.40;;;;;;;;;;5093373;28;20020;-67
2021/04/12 13:58:35;;;;;;;;;;;;;;;;;;5092585;28;20115;-69
2021/04/12 14:01:04;;;;;;;8.35;2.78;;;;;;;;;;5092776;28;19995;-68
2021/04/12 14:03:38;;;;;;;7.63;2.03;;;;;;;;;;5093205;28;20500;-68
2021/04/12 14:06:24;;;;;;;8.35;2.28;;;;;;;;;;5093117;28;20025;-68
2021/04/12 14:08:52;;;;;;;12.82;2.53;;;;;;;;;;5093073;28;20024;-68
2021/04/12 14:11:22;;;;;;;9.85;2.42;;;;;;;;;;5093121;28;20060;-68
2021/04/12 14:13:51;;;;;;;6.50;2.67;;;;;;;;;;5092729;28;20039;-68
2021/04/12 14:16:25;;;;;;;7.32;2.97;;;;;;;;;;5091705;28;20051;-68
2021/04/12 14:18:52;;;;;;;10.45;3.55;;;;;;;;;;5091819;28;20070;-68
2021/04/12 14:21:23;;;;;;;9.90;4.07;;;;;;;;;;5092580;28;20036;-68
2021/04/12 14:24:10;;;;;;;12.35;3.42;;;;;;;;;;5093024;28;20127;-69
2021/04/12 14:26:38;;;;;;;6.40;2.42;;;;;;;;;;5074633;28;20024;-69
2021/04/12 14:29:18;;;;;;;9.30;3.40;;;;;;;;;;5092514;28;20099;-68
2021/04/12 14:31:45;;;;;;;7.68;2.65;;;;;;;;;;5092861;28;20020;-68
2021/04/12 14:34:13;;;;;;;5.93;2.35;;;;;;;;;;5092805;28;20115;-69
2021/04/12 14:36:41;;;;;;;8.05;2.80;;;;;;;;;;5092145;28;20043;-68
2021/04/12 14:39:07;;;;;;;11.02;3.17;;;;;;;;;;5092831;28;20031;-68
2021/04/12 14:41:38;;;;;;;8.73;4.03;;;;;;;;;;5092381;28;20036;-68
2021/04/12 14:44:06;;;;;;;12.32;5.10;;;;;;;;;;5092985;28;20083;-68
2021/04/12 14:46:40;;;;;;;7.63;3.95;;;;;;;;;;5092744;28;20095;-68
2021/04/12 14:49:08;;;;;;;8.90;3.25;;;;;;;;;;5092353;28;20107;-68
2021/04/12 14:51:39;;;;;;;6.97;2.45;;;;;;;;;;5091280;28;20020;-68
2021/04/12 14:54:22;;;;;;;8.50;2.75;;;;;;;;;;5092629;28;20048;-68
2021/04/12 14:57:05;;;;;;;13.00;2.70;;;;;;;;;;5092310;28;20020;-67
2021/04/12 14:59:39;;;;;;;8.88;2.30;;;;;;;;;;5092729;28;20020;-67
2021/04/12 15:02:10;;;;;;;6.65;1.50;;;;;;;;;;5092347;28;20048;-68
2021/04/12 15:04:36;;;;;;;9.60;2.27;;;;;;;;;;5092012;28;20051;-67
2021/04/12 15:07:06;;;;;;;7.60;2.65;;;;;;;;;;5091133;28;20433;-67
2021/04/12 15:09:52;;;;;;;7.30;2.15;;;;;;;;;;5092326;28;20020;-67
2021/04/12 15:12:19;;;;;;;7.82;2.83;;;;;;;;;;5051080;28;20055;-67
2021/04/12 15:14:56;;;;;;;9.35;3.30;;;;;;;;;;5091189;28;20476;-68
2021/04/12 15:17:24;;;;;;;7.78;2.83;;;;;;;;;;5091945;28;20028;-67
2021/04/12 15:19:54;;;;;;;9.18;2.85;;;;;;;;;;5092453;28;20023;-67
2021/04/12 15:22:28;;;;;;;9.02;3.35;;;;;;;;;;5092235;28;20074;-67
2021/04/12 15:25:00;;;;;;;11.07;3.80;;;;;;;;;;5090578;28;20031;-67
2021/04/12 15:27:26;;;;;;;11.25;4.18;;;;;;;;;;5092261;28;20529;-68
2021/04/12 15:30:04;;;;;;;9.85;3.42;;;;;;;;;;5092254;28;20028;-68
2021/04/12 15:32:35;;;;;;;10.25;3.88;;;;;;;;;;5090563;28;20448;-68
2021/04/12 15:35:04;;;;;;;10.13;2.45;;;;;;;;;;5092096;28;20028;-68
2021/04/12 15:37:35;;;;;;;8.35;2.63;;;;;;;;;;5092209;28;20020;-68
2021/04/12 15:40:11;;;;;;;11.43;2.55;;;;;;;;;;5090641;28;20027;-68
2021/04/12 15:42:43;;;;;;;7.70;2.67;;;;;;;;;;5090808;28;20032;-68
2021/04/12 15:45:34;;;;;;;8.15;2.88;;;;;;;;;;5091697;28;20024;-68
2021/04/12 15:48:05;;;;;;;6.53;1.92;;;;;;;;;;5056164;28;20047;-69
2021/04/12 15:50:32;;;;;;;9.40;2.83;;;;;;;;;;5095946;28;20020;-68
2021/04/12 15:53:17;;;;;;;12.43;2.42;;;;;;;;;;5095593;28;20095;-68
2021/04/12 15:55:45;;;;;;;7.65;2.88;;;;;;;;;;5094455;28;20210;-68
2021/04/12 15:58:14;;;;;;;9.85;3.85;;;;;;;;;;5095842;28;20024;-68
2021/04/12 16:00:42;;;;;;;12.30;5.60;;;;;;;;;;5095278;28;20044;-68
2021/04/12 16:03:13;;;;;;;23.75;10.40;;;;;;;;;;5095727;28;20495;-68